Time,TemperatureF,DewpointF,PressureIn,WindDirection,WindDirectionDegrees,WindSpeedMPH,WindSpeedGustMPH,Humidity,HourlyPrecipIn,Conditions,Clouds,dailyrainin,SolarRadiationWatts/m^2,SoftwareType,DateUTC
2013-02-22 00:21:00,18.0,10.0,-100.00,North,1,2.0,4.0,70,0.00,,,0.00,34.000000,,2013-02-22 00:21:00,
2013-02-22 00:31:00,18.0,10.0,-100.00,North,1,2.0,4.0,70,0.00,,,0.00,34.000000,,2013-02-22 00:31:00,
2013-02-22 00:41:00,18.0,10.0,-100.00,North,1,2.0,4.0,70,0.00,,,0.00,34.000000,,2013-02-22 00:41:00,
2013-02-22 00:51:00,18.0,10.0,-100.00,North,1,2.0,4.0,70,0.00,,,0.00,34.000000,,2013-02-22 00:51:00,
2013-02-22 01:21:00,16.0,9.0,-100.00,WNW,291,2.0,4.0,73,0.00,,,0.00,21.000000,,2013-02-22 01:21:00,
2013-02-22 01:32:00,16.0,9.0,-100.00,WNW,291,2.0,4.0,73,0.00,,,0.00,21.000000,,2013-02-22 01:32:00,
2013-02-22 01:42:00,16.0,9.0,-100.00,WNW,291,2.0,4.0,73,0.00,,,0.00,21.000000,,2013-02-22 01:42:00,
2013-02-22 01:51:00,16.0,9.0,-100.00,WNW,291,2.0,4.0,73,0.00,,,0.00,21.000000,,2013-02-22 01:51:00,
2013-02-22 02:21:00,15.0,9.0,-100.00,WSW,252,1.0,4.0,76,0.00,,,0.00,14.000000,,2013-02-22 02:21:00,
2013-02-22 02:31:00,15.0,9.0,-100.00,WSW,252,1.0,4.0,76,0.00,,,0.00,14.000000,,2013-02-22 02:31:00,
2013-02-22 02:42:00,15.0,9.0,-100.00,WSW,252,1.0,4.0,76,0.00,,,0.00,14.000000,,2013-02-22 02:42:00,
2013-02-22 02:52:00,15.0,9.0,-100.00,WSW,252,1.0,4.0,76,0.00,,,0.00,14.000000,,2013-02-22 02:52:00,
2013-02-22 03:21:00,13.0,8.0,-100.00,WSW,253,1.0,4.0,79,0.00,,,0.00,2.000000,,2013-02-22 03:21:00,
2013-02-22 03:31:00,13.0,8.0,-100.00,WSW,253,1.0,4.0,79,0.00,,,0.00,2.000000,,2013-02-22 03:31:00,
2013-02-22 03:41:00,13.0,8.0,-100.00,WSW,253,1.0,4.0,79,0.00,,,0.00,2.000000,,2013-02-22 03:41:00,
2013-02-22 03:51:00,13.0,8.0,-100.00,WSW,253,1.0,4.0,79,0.00,,,0.00,2.000000,,2013-02-22 03:51:00,
2013-02-22 04:11:00,11.0,6.0,-100.00,WSW,241,2.0,6.0,79,0.00,,,0.00,0.000000,,2013-02-22 04:11:00,
2013-02-22 04:21:00,11.0,6.0,-100.00,WSW,241,2.0,6.0,79,0.00,,,0.00,0.000000,,2013-02-22 04:21:00,
2013-02-22 04:32:00,11.0,6.0,-100.00,WSW,241,2.0,6.0,79,0.00,,,0.00,0.000000,,2013-02-22 04:32:00,
2013-02-22 04:42:00,11.0,6.0,-100.00,WSW,241,2.0,6.0,79,0.00,,,0.00,0.000000,,2013-02-22 04:42:00,
2013-02-22 04:51:00,11.0,6.0,-100.00,WSW,241,2.0,6.0,79,0.00,,,0.00,0.000000,,2013-02-22 04:51:00,
2013-02-22 05:22:00,10.0,6.0,-100.00,South,174,0.0,3.0,84,0.00,,,0.00,0.000000,,2013-02-22 05:22:00,
2013-02-22 05:32:00,10.0,6.0,-100.00,South,174,0.0,3.0,84,0.00,,,0.00,0.000000,,2013-02-22 05:32:00,
2013-02-22 05:41:00,10.0,6.0,-100.00,South,174,0.0,3.0,84,0.00,,,0.00,0.000000,,2013-02-22 05:41:00,
2013-02-22 05:52:00,10.0,6.0,-100.00,South,174,0.0,3.0,84,0.00,,,0.00,0.000000,,2013-02-22 05:52:00,
2013-02-22 06:21:00,9.0,5.0,-100.00,SSW,211,0.0,1.0,84,0.00,,,0.00,0.000000,,2013-02-22 06:21:00,
2013-02-22 09:21:00,5.0,1.0,-100.00,SSW,207,0.0,0.0,83,-99.99,,,0.00,0.000000,,2013-02-22 09:21:00,
2013-02-22 09:31:00,5.0,1.0,-100.00,SSW,207,0.0,0.0,83,-99.99,,,0.00,0.000000,,2013-02-22 09:31:00,
2013-02-22 09:41:00,5.0,1.0,-100.00,SSW,207,0.0,0.0,83,-99.99,,,0.00,0.000000,,2013-02-22 09:41:00,
2013-02-22 09:51:00,5.0,1.0,-100.00,SSW,207,0.0,0.0,83,-99.99,,,0.00,0.000000,,2013-02-22 09:51:00,
2013-02-22 10:21:00,2.0,-2.0,-100.00,SSE,161,0.0,1.0,82,0.00,,,0.00,0.000000,,2013-02-22 10:21:00,
2013-02-22 12:21:00,-5.0,-10.0,-100.00,SSW,194,0.0,1.0,80,0.00,,,0.00,0.000000,,2013-02-22 12:21:00,
2013-02-22 15:21:00,2.0,-2.0,-100.00,South,181,0.0,1.0,81,0.00,,,0.00,0.000000,,2013-02-22 15:21:00,
2013-02-22 15:32:00,2.0,-2.0,-100.00,South,181,0.0,1.0,81,0.00,,,0.00,0.000000,,2013-02-22 15:32:00,
2013-02-22 15:41:00,2.0,-2.0,-100.00,South,181,0.0,1.0,81,0.00,,,0.00,0.000000,,2013-02-22 15:41:00,
2013-02-22 15:51:00,2.0,-2.0,-100.00,South,181,0.0,1.0,81,0.00,,,0.00,0.000000,,2013-02-22 15:51:00,
2013-02-22 16:21:00,2.0,-2.0,-100.00,West,264,0.0,1.0,81,0.00,,,0.00,0.000000,,2013-02-22 16:21:00,
2013-02-22 16:31:00,2.0,-2.0,-100.00,West,264,0.0,1.0,81,0.00,,,0.00,0.000000,,2013-02-22 16:31:00,
2013-02-22 16:41:00,2.0,-2.0,-100.00,West,264,0.0,1.0,81,0.00,,,0.00,0.000000,,2013-02-22 16:41:00,
2013-02-22 16:52:00,2.0,-2.0,-100.00,West,264,0.0,1.0,81,0.00,,,0.00,0.000000,,2013-02-22 16:52:00,
2013-02-22 17:21:00,0.0,-4.0,-100.00,SSE,155,0.0,0.0,81,0.00,,,0.00,0.000000,,2013-02-22 17:21:00,
2013-02-22 18:22:00,4.0,-1.0,-100.00,ESE,118,0.0,0.0,81,-99.99,,,0.00,7.000000,,2013-02-22 18:22:00,
2013-02-22 18:32:00,4.0,-1.0,-100.00,ESE,118,0.0,0.0,81,-99.99,,,0.00,7.000000,,2013-02-22 18:32:00,
2013-02-22 18:42:00,4.0,-1.0,-100.00,ESE,118,0.0,0.0,81,-99.99,,,0.00,7.000000,,2013-02-22 18:42:00,
2013-02-22 18:51:00,4.0,-1.0,-100.00,ESE,118,0.0,0.0,81,-99.99,,,0.00,7.000000,,2013-02-22 18:51:00,
2013-02-22 19:11:00,9.0,4.0,-100.00,NE,48,0.0,1.0,80,0.00,,,0.00,18.000000,,2013-02-22 19:11:00,
2013-02-22 19:21:00,9.0,4.0,-100.00,NE,48,0.0,1.0,80,0.00,,,0.00,18.000000,,2013-02-22 19:21:00,
2013-02-22 19:31:00,9.0,4.0,-100.00,NE,48,0.0,1.0,80,0.00,,,0.00,18.000000,,2013-02-22 19:31:00,
2013-02-22 19:41:00,9.0,4.0,-100.00,NE,48,0.0,1.0,80,0.00,,,0.00,18.000000,,2013-02-22 19:41:00,
2013-02-22 19:51:00,9.0,4.0,-100.00,NE,48,0.0,1.0,80,0.00,,,0.00,18.000000,,2013-02-22 19:51:00,
2013-02-22 20:21:00,12.0,6.0,-100.00,ENE,74,1.0,3.0,77,0.00,,,0.00,24.000000,,2013-02-22 20:21:00,
2013-02-22 20:31:00,12.0,6.0,-100.00,ENE,74,1.0,3.0,77,0.00,,,0.00,24.000000,,2013-02-22 20:31:00,
2013-02-22 20:41:00,12.0,6.0,-100.00,ENE,74,1.0,3.0,77,0.00,,,0.00,24.000000,,2013-02-22 20:41:00,
2013-02-22 20:52:00,12.0,6.0,-100.00,ENE,74,1.0,3.0,77,0.00,,,0.00,24.000000,,2013-02-22 20:52:00,
2013-02-22 21:21:00,17.0,6.0,-100.00,SSE,153,0.0,4.0,62,0.00,,,0.00,51.000000,,2013-02-22 21:21:00,
2013-02-22 21:31:00,17.0,6.0,-100.00,SSE,153,0.0,4.0,62,0.00,,,0.00,51.000000,,2013-02-22 21:31:00,
2013-02-22 21:42:00,17.0,6.0,-100.00,SSE,153,0.0,4.0,62,0.00,,,0.00,51.000000,,2013-02-22 21:42:00,
2013-02-22 21:51:00,17.0,6.0,-100.00,SSE,153,0.0,4.0,62,0.00,,,0.00,51.000000,,2013-02-22 21:51:00,
2013-02-22 22:21:00,21.0,7.0,-100.00,SSW,195,0.0,4.0,54,0.00,,,0.00,73.000000,,2013-02-22 22:21:00,
2013-02-22 22:31:00,21.0,7.0,-100.00,SSW,195,0.0,4.0,54,0.00,,,0.00,73.000000,,2013-02-22 22:31:00,
2013-02-22 22:41:00,21.0,7.0,-100.00,SSW,195,0.0,4.0,54,0.00,,,0.00,73.000000,,2013-02-22 22:41:00,
2013-02-22 22:51:00,21.0,7.0,-100.00,SSW,195,0.0,4.0,54,0.00,,,0.00,73.000000,,2013-02-22 22:51:00,
2013-02-22 23:21:00,19.0,8.0,-100.00,WNW,291,1.0,5.0,62,0.00,,,0.00,69.000000,,2013-02-22 23:21:00,
2013-02-22 23:31:00,19.0,8.0,-100.00,WNW,291,1.0,5.0,62,0.00,,,0.00,69.000000,,2013-02-22 23:31:00,
2013-02-22 23:41:00,19.0,8.0,-100.00,WNW,291,1.0,5.0,62,0.00,,,0.00,69.000000,,2013-02-22 23:41:00,
2013-02-22 23:52:00,19.0,8.0,-100.00,WNW,291,1.0,5.0,62,0.00,,,0.00,69.000000,,2013-02-22 23:52:00,